Time;durP1;ratioP1;P1;durP2;ratioP2;P2;SDS_P1;SDS_P2;PMS_P1;PMS_P2;Temp;Humidity;BMP_temperature;BMP_pressure;BME280_temperature;BME280_humidity;BME280_pressure;Samples;Min_cycle;Max_cycle;Signal;HPM_P1;HPM_P2
2021/04/27 00:02:14;;;;;;;0.17;0.17;;;;;;;-0.14;74.42;101937.53;10574659;28;20028;-65
2021/04/27 00:07:15;;;;;;;0.20;0.20;;;;;;;-0.23;75.24;101927.44;10576366;28;20257;-65
2021/04/27 00:12:15;;;;;;;0.30;0.30;;;;;;;-0.32;75.43;101933.03;10576526;28;20015;-66
2021/04/27 00:17:16;;;;;;;0.10;0.10;;;;;;;-0.42;74.95;101926.47;10572719;28;20035;-65
2021/04/27 00:22:16;;;;;;;0.20;0.20;;;;;;;-0.53;75.59;101919.88;10553129;28;20302;-65
2021/04/27 00:27:16;;;;;;;0.20;0.20;;;;;;;-0.63;76.19;101912.47;10575216;27;20434;-65
2021/04/27 00:32:17;;;;;;;0.20;0.20;;;;;;;-0.70;76.30;101911.84;10574328;28;20562;-64
2021/04/27 00:37:17;;;;;;;0.22;0.22;;;;;;;-0.70;76.39;101912.72;10569830;28;20015;-65
2021/04/27 00:42:30;;;;;;;0.22;0.22;;;;;;;-0.69;75.56;101910.97;10575856;28;20619;-65
2021/04/27 00:47:30;;;;;;;0.20;0.20;;;;;;;-0.77;76.28;101910.41;10567140;28;20421;-65
2021/04/27 00:52:31;;;;;;;0.30;0.30;;;;;;;-0.77;76.84;101908.63;10575960;28;20027;-65
2021/04/27 00:57:32;;;;;;;0.20;0.20;;;;;;;-0.82;77.22;101910.56;10577851;28;20710;-64
2021/04/27 01:02:33;;;;;;;0.30;0.30;;;;;;;-0.80;77.20;101905.28;10575790;28;20063;-65
2021/04/27 01:07:37;;;;;;;0.22;0.22;;;;;;;-0.82;77.13;101904.47;10575529;28;20057;-62
2021/04/27 01:12:47;;;;;;;0.20;0.20;;;;;;;-0.86;77.31;101913.38;10574458;28;20479;-64
2021/04/27 01:17:49;;;;;;;0.20;0.20;;;;;;;-0.91;77.61;101901.31;10541393;28;20047;-62
2021/04/27 01:23:18;;;;;;;0.20;0.20;;;;;;;-0.94;78.26;101900.59;10532851;28;20031;-65
2021/04/27 01:28:20;;;;;;;0.20;0.20;;;;;;;-0.98;78.06;101905.09;10531953;28;20070;-65
2021/04/27 01:33:23;;;;;;;0.20;0.20;;;;;;;-1.01;78.97;101893.91;10532771;28;20028;-63
2021/04/27 01:38:24;;;;;;;0.20;0.20;;;;;;;-1.03;79.03;101898.31;10533022;28;20027;-63
2021/04/27 01:43:25;;;;;;;0.20;0.20;;;;;;;-1.14;79.15;101894.34;10544175;28;20088;-65
2021/04/27 01:48:26;;;;;;;0.20;0.20;;;;;;;-1.28;79.44;101901.88;10579746;28;20027;-65
2021/04/27 01:53:27;;;;;;;0.20;0.20;;;;;;;-1.46;79.51;101890.31;10580904;28;20389;-65
2021/04/27 01:58:27;;;;;;;0.28;0.28;;;;;;;-1.61;79.93;101888.25;10562549;28;20474;-64
2021/04/27 02:03:28;;;;;;;0.22;0.22;;;;;;;-1.63;79.75;101882.22;10581471;28;20103;-64
2021/04/27 02:08:29;;;;;;;0.17;0.17;;;;;;;-1.66;80.03;101879.72;10580822;28;20595;-64
2021/04/27 02:13:29;;;;;;;0.20;0.20;;;;;;;-1.75;79.79;101873.06;10581050;28;20386;-64
2021/04/27 02:18:43;;;;;;;0.20;0.20;;;;;;;-1.79;79.89;101876.69;10580424;28;20052;-64
2021/04/27 02:23:45;;;;;;;0.20;0.20;;;;;;;-1.75;80.37;101880.06;10580364;28;20377;-64
2021/04/27 02:28:46;;;;;;;0.20;0.20;;;;;;;-1.65;80.43;101876.22;10580598;28;20020;-64
2021/04/27 02:33:47;;;;;;;0.20;0.20;;;;;;;-1.62;80.09;101874.34;10580012;28;20106;-64
2021/04/27 02:38:47;;;;;;;0.20;0.20;;;;;;;-1.65;80.01;101860.53;10570323;28;20126;-64
2021/04/27 02:43:48;;;;;;;0.10;0.10;;;;;;;-1.71;80.10;101859.00;10561393;28;20027;-64
2021/04/27 02:48:48;;;;;;;0.20;0.20;;;;;;;-1.78;80.27;101865.34;10578853;28;20577;-63
2021/04/27 02:53:48;;;;;;;0.20;0.20;;;;;;;-1.89;80.48;101852.69;10579402;28;20023;-64
2021/04/27 02:58:49;;;;;;;0.20;0.20;;;;;;;-1.99;81.10;101846.06;10577237;28;20047;-64
2021/04/27 03:03:50;;;;;;;0.25;0.25;;;;;;;-2.05;81.64;101846.28;10579635;28;20262;-64
2021/04/27 03:08:50;;;;;;;0.20;0.20;;;;;;;-2.15;82.15;101848.34;10578602;28;20482;-64
2021/04/27 03:13:54;;;;;;;0.20;0.20;;;;;;;-2.22;82.32;101838.16;10578837;28;20111;-64
2021/04/27 03:18:54;;;;;;;0.20;0.20;;;;;;;-2.32;82.43;101838.50;10578246;28;20348;-64
2021/04/27 03:23:55;;;;;;;0.30;0.30;;;;;;;-2.41;83.17;101837.94;10578418;28;20032;-64
2021/04/27 03:28:55;;;;;;;0.20;0.20;;;;;;;-2.54;83.37;101830.50;10577309;28;20012;-63
2021/04/27 03:33:55;;;;;;;0.10;0.10;;;;;;;-2.56;84.13;101836.69;10578388;28;20272;-64
2021/04/27 03:38:55;;;;;;;0.10;0.10;;;;;;;-2.57;84.18;101827.16;10573852;28;20639;-64
2021/04/27 03:43:56;;;;;;;0.10;0.10;;;;;;;-2.60;84.13;101828.09;10569189;28;20470;-64
2021/04/27 03:48:56;;;;;;;0.20;0.20;;;;;;;-2.58;84.29;101830.69;10575483;28;20636;-64
2021/04/27 03:53:57;;;;;;;0.20;0.20;;;;;;;-2.50;84.47;101833.91;10575122;28;20458;-64
2021/04/27 03:58:58;;;;;;;0.20;0.20;;;;;;;-2.38;84.87;101830.03;10570648;28;20419;-64
2021/04/27 04:03:58;;;;;;;0.22;0.22;;;;;;;-2.02;83.82;101832.25;10551288;28;20381;-64
2021/04/27 04:08:58;;;;;;;0.20;0.20;;;;;;;-1.44;81.47;101835.38;10574292;28;20023;-64
2021/04/27 04:13:59;;;;;;;0.10;0.10;;;;;;;-0.68;79.08;101827.16;10574549;28;20019;-63
2021/04/27 04:18:59;;;;;;;0.20;0.20;;;;;;;0.25;75.59;101828.47;10569585;28;20023;-64
2021/04/27 04:23:59;;;;;;;0.17;0.17;;;;;;;1.06;71.67;101819.50;10575197;28;20564;-64
2021/04/27 04:29:00;;;;;;;0.20;0.20;;;;;;;2.00;69.24;101819.13;10569235;28;20016;-64
2021/04/27 04:34:00;;;;;;;0.30;0.30;;;;;;;3.19;65.18;101818.84;10572869;28;20258;-64
2021/04/27 04:39:00;;;;;;;0.00;0.00;;;;;;;4.04;61.58;101810.34;10572941;28;20394;-64
2021/04/27 04:44:01;;;;;;;0.05;0.05;;;;;;;4.66;59.30;101811.81;10575415;28;20046;-65
2021/04/27 04:49:02;;;;;;;0.03;0.03;;;;;;;5.22;57.49;101813.44;10575175;28;20107;-65
2021/04/27 04:54:03;;;;;;;0.00;0.00;;;;;;;5.65;55.79;101804.47;10575144;28;20020;-65
2021/04/27 04:59:03;;;;;;;0.00;0.00;;;;;;;6.00;55.54;101811.84;10574356;28;20020;-65
2021/04/27 05:04:04;;;;;;;0.00;0.00;;;;;;;6.48;54.79;101812.84;10568500;28;20031;-65
2021/04/27 05:09:06;;;;;;;0.00;0.00;;;;;;;7.11;53.40;101824.22;10575044;28;20015;-65
2021/04/27 05:14:07;;;;;;;0.00;0.00;;;;;;;8.02;52.17;101812.13;10578125;28;20047;-64
2021/04/27 05:19:07;;;;;;;0.08;0.08;;;;;;;8.92;49.41;101818.28;10583377;28;20073;-64
2021/04/27 05:24:08;;;;;;;0.10;0.10;;;;;;;9.90;47.66;101823.44;10583499;28;20527;-65
2021/04/27 05:29:09;;;;;;;0.10;0.10;;;;;;;10.40;46.44;101828.94;10562397;28;20390;-65
2021/04/27 05:34:09;;;;;;;0.10;0.10;;;;;;;10.65;45.23;101826.78;10577281;28;20021;-65
2021/04/27 05:39:10;;;;;;;0.10;0.10;;;;;;;10.77;43.64;101831.03;10580877;28;20077;-65
2021/04/27 05:44:10;;;;;;;0.10;0.10;;;;;;;10.97;43.18;101831.94;10581041;28;20046;-65
2021/04/27 05:49:11;;;;;;;0.20;0.20;;;;;;;11.33;43.28;101832.25;10562095;28;20490;-65
2021/04/27 05:54:11;;;;;;;0.10;0.10;;;;;;;11.46;42.18;101842.63;10580499;28;20338;-63
2021/04/27 05:59:11;;;;;;;0.10;0.10;;;;;;;11.58;42.88;101841.53;10583325;28;20027;-63
2021/04/27 06:04:12;;;;;;;0.15;0.15;;;;;;;11.68;43.61;101847.69;10582149;28;20025;-64
2021/04/27 06:09:16;;;;;;;0.10;0.10;;;;;;;11.67;43.08;101846.03;10581358;28;20015;-62
2021/04/27 06:14:17;;;;;;;0.10;0.10;;;;;;;11.56;41.84;101847.00;10582296;28;20048;-63
2021/04/27 06:19:17;;;;;;;0.10;0.10;;;;;;;12.13;42.20;101847.09;10584420;27;20016;-62
2021/04/27 06:24:17;;;;;;;0.10;0.10;;;;;;;12.40;42.22;101848.97;10581180;28;20019;-63
2021/04/27 06:29:17;;;;;;;0.10;0.10;;;;;;;12.68;41.89;101843.66;10579464;28;20015;-63
2021/04/27 06:34:18;;;;;;;0.10;0.10;;;;;;;13.04;40.83;101836.56;10581133;27;20022;-63
2021/04/27 06:39:18;;;;;;;0.10;0.10;;;;;;;13.74;39.78;101836.75;10579734;28;20016;-64
2021/04/27 06:44:18;;;;;;;0.10;0.10;;;;;;;14.27;36.88;101834.94;10581122;28;20514;-63
2021/04/27 06:49:19;;;;;;;0.10;0.10;;;;;;;13.68;34.97;101836.53;10580753;28;20022;-63
2021/04/27 06:54:19;;;;;;;0.10;0.10;;;;;;;12.74;36.57;101840.41;10581001;28;20029;-63
2021/04/27 06:59:21;;;;;;;0.10;0.10;;;;;;;12.73;37.24;101837.88;10578322;28;20424;-63
2021/04/27 07:04:21;;;;;;;0.10;0.10;;;;;;;12.52;35.98;101828.25;10579542;28;20496;-64
2021/04/27 07:09:22;;;;;;;0.10;0.10;;;;;;;12.72;37.50;101826.34;10578521;28;20099;-63
2021/04/27 07:14:22;;;;;;;0.10;0.10;;;;;;;13.07;36.35;101825.56;10580453;28;20069;-65
2021/04/27 07:19:22;;;;;;;0.20;0.20;;;;;;;13.35;36.21;101809.47;10579697;28;20023;-64
2021/04/27 07:24:24;;;;;;;0.20;0.20;;;;;;;13.63;34.89;101820.09;10562764;28;20024;-64
2021/04/27 07:29:25;;;;;;;0.10;0.10;;;;;;;13.46;35.60;101809.25;10580655;28;20257;-64
2021/04/27 07:34:26;;;;;;;0.10;0.10;;;;;;;13.21;36.82;101810.00;10580810;28;20671;-64
2021/04/27 07:39:26;;;;;;;0.10;0.10;;;;;;;12.88;36.44;101812.31;10558497;28;20118;-63
2021/04/27 07:44:27;;;;;;;0.10;0.10;;;;;;;12.40;36.62;101808.91;10583038;27;20114;-64
2021/04/27 07:49:27;;;;;;;0.10;0.10;;;;;;;11.65;41.03;101809.78;10575891;28;20257;-64
2021/04/27 07:54:28;;;;;;;0.10;0.10;;;;;;;11.73;36.94;101810.75;10560798;28;20024;-64
2021/04/27 07:59:28;;;;;;;0.10;0.10;;;;;;;12.30;37.58;101799.25;10575139;28;20098;-64
2021/04/27 08:04:28;;;;;;;0.10;0.10;;;;;;;12.23;35.92;101791.81;10573097;27;20449;-64
2021/04/27 08:09:29;;;;;;;0.10;0.10;;;;;;;12.44;36.50;101782.72;10577552;28;20281;-64
2021/04/27 08:14:29;;;;;;;0.10;0.10;;;;;;;12.27;35.70;101792.34;10571508;28;20272;-64
2021/04/27 08:19:29;;;;;;;0.10;0.10;;;;;;;12.73;36.52;101790.59;10574898;28;20045;-63
2021/04/27 08:24:30;;;;;;;0.10;0.10;;;;;;;12.46;34.64;101794.97;10577783;28;20325;-64
2021/04/27 08:29:30;;;;;;;0.10;0.10;;;;;;;12.44;38.28;101780.06;10577328;28;20360;-64
2021/04/27 08:34:30;;;;;;;0.10;0.10;;;;;;;11.75;35.33;101790.09;10572573;28;20382;-64
2021/04/27 08:39:31;;;;;;;0.10;0.10;;;;;;;11.46;37.19;101784.81;10574932;28;20027;-64
2021/04/27 08:44:32;;;;;;;0.10;0.10;;;;;;;11.65;34.41;101783.09;10564825;28;20019;-64
2021/04/27 08:49:32;;;;;;;0.10;0.10;;;;;;;11.29;38.04;101789.00;10575903;28;20032;-66
2021/04/27 08:54:36;;;;;;;0.00;0.00;;;;;;;11.72;34.83;101782.38;10586647;28;20103;-64
2021/04/27 08:59:37;;;;;;;0.10;0.10;;;;;;;11.40;37.81;101780.00;10583082;28;20289;-64
2021/04/27 09:04:49;;;;;;;0.10;0.10;;;;;;;11.76;37.24;101769.59;10578691;28;20020;-64
2021/04/27 09:09:54;;;;;;;0.10;0.10;;;;;;;11.92;35.39;101769.84;10578402;22;20050;-65
2021/04/27 09:14:56;;;;;;;0.10;0.10;;;;;;;11.96;35.67;101770.41;10585697;28;20038;-65
2021/04/27 09:19:58;;;;;;;0.10;0.10;;;;;;;12.03;35.80;101758.16;10584764;28;20389;-65
2021/04/27 09:25:03;;;;;;;0.10;0.10;;;;;;;12.05;35.91;101766.03;10583648;28;20054;-66
2021/04/27 09:30:12;;;;;;;0.05;0.05;;;;;;;12.06;32.26;101749.84;10582246;28;20019;-66
2021/04/27 09:35:24;;;;;;;0.10;0.10;;;;;;;12.09;31.10;101748.72;10582851;28;20091;-66
2021/04/27 09:40:25;;;;;;;0.05;0.05;;;;;;;12.24;32.44;101740.06;10580796;28;20456;-65
2021/04/27 09:45:25;;;;;;;0.08;0.08;;;;;;;12.13;38.30;101742.09;10579339;28;20124;-66
2021/04/27 09:50:26;;;;;;;0.08;0.08;;;;;;;12.00;32.75;101745.09;10576692;28;20016;-65
2021/04/27 09:55:26;;;;;;;0.10;0.10;;;;;;;11.98;32.92;101720.34;10581100;28;20023;-65
2021/04/27 10:00:33;;;;;;;0.10;0.10;;;;;;;11.65;32.47;101719.88;10581005;28;20024;-66
2021/04/27 10:05:35;;;;;;;0.10;0.10;;;;;;;11.93;33.73;101718.16;10581411;28;20125;-66
2021/04/27 10:10:37;;;;;;;0.10;0.10;;;;;;;11.88;34.17;101707.06;10578122;28;20281;-65
2021/04/27 10:15:38;;;;;;;0.10;0.10;;;;;;;11.84;34.06;101708.31;10580728;28;20501;-66
2021/04/27 10:20:39;;;;;;;0.10;0.10;;;;;;;11.98;34.78;101693.66;10578782;28;20073;-65
2021/04/27 10:25:39;;;;;;;0.10;0.10;;;;;;;12.03;38.23;101696.75;10580889;28;20030;-65
2021/04/27 10:30:43;;;;;;;0.10;0.10;;;;;;;12.12;31.61;101679.81;10573310;28;20019;-65
2021/04/27 10:36:01;;;;;;;0.10;0.10;;;;;;;11.92;34.83;101681.75;10576908;28;20485;-66
2021/04/27 10:41:03;;;;;;;0.10;0.10;;;;;;;11.64;34.07;101680.84;10576160;28;20106;-66
2021/04/27 10:46:09;;;;;;;0.10;0.10;;;;;;;11.43;35.72;101674.84;10578182;28;20064;-65
2021/04/27 10:51:22;;;;;;;0.10;0.10;;;;;;;11.06;32.47;101660.47;10575365;28;20023;-66
2021/04/27 10:57:10;;;;;;;0.10;0.10;;;;;;;11.09;31.71;101660.19;10576280;28;20378;-66
2021/04/27 11:02:21;;;;;;;0.10;0.10;;;;;;;11.35;32.42;101650.75;10570688;28;20028;-65
2021/04/27 11:07:24;;;;;;;0.10;0.10;;;;;;;11.18;30.98;101645.16;10572876;28;20106;-65
2021/04/27 11:12:35;;;;;;;0.08;0.08;;;;;;;11.22;31.59;101641.19;10573491;28;20028;-65
2021/04/27 11:17:39;;;;;;;0.00;0.00;;;;;;;11.67;33.66;101635.19;10575377;28;20086;-66
2021/04/27 11:22:58;;;;;;;0.13;0.13;;;;;;;11.66;30.28;101630.81;10575821;28;20118;-65
2021/04/27 11:27:58;;;;;;;0.08;0.08;;;;;;;11.44;31.70;101610.69;10575235;28;20020;-65
2021/04/27 11:33:04;;;;;;;0.10;0.10;;;;;;;11.51;31.01;101616.28;10575900;28;20012;-65
2021/04/27 11:38:06;;;;;;;0.10;0.10;;;;;;;11.67;34.81;101605.84;10573613;28;20019;-66
2021/04/27 11:43:10;;;;;;;0.00;0.00;;;;;;;11.63;35.96;101592.91;10575636;27;20027;-65
2021/04/27 11:48:16;;;;;;;0.10;0.10;;;;;;;11.82;32.18;101592.84;10574389;28;20473;-65
2021/04/27 11:53:25;;;;;;;0.10;0.10;;;;;;;11.83;30.86;101593.66;10595187;22;20037;-68
2021/04/27 11:58:32;;;;;;;0.10;0.10;;;;;;;11.82;33.54;101592.84;10603216;27;20111;-67
2021/04/27 12:03:43;;;;;;;0.10;0.10;;;;;;;12.07;31.44;101575.31;10580100;27;20408;-67
2021/04/27 12:08:52;;;;;;;0.10;0.10;;;;;;;11.94;30.48;101578.31;10574221;28;20026;-67
2021/04/27 12:14:07;;;;;;;0.10;0.10;;;;;;;11.89;31.32;101577.09;10572209;28;20385;-67
2021/04/27 12:19:07;;;;;;;0.10;0.10;;;;;;;11.90;29.88;101574.28;10575422;28;20015;-67
2021/04/27 12:24:09;;;;;;;0.10;0.10;;;;;;;12.03;29.24;101563.22;10602728;27;20031;-68
2021/04/27 12:29:10;;;;;;;0.10;0.10;;;;;;;11.95;31.19;101563.13;10605612;27;20016;-68
2021/04/27 12:34:15;;;;;;;0.10;0.10;;;;;;;11.94;30.03;101548.13;10617102;27;20027;-67
2021/04/27 12:39:18;;;;;;;0.10;0.10;;;;;;;12.09;30.47;101543.94;10572526;28;20055;-67
2021/04/27 12:44:33;;;;;;;0.00;0.00;;;;;;;12.00;31.90;101542.16;10586417;28;20015;-68
2021/04/27 12:49:34;;;;;;;0.10;0.10;;;;;;;12.01;34.29;101525.16;10616292;27;20023;-67
2021/04/27 12:54:36;;;;;;;0.10;0.10;;;;;;;11.97;33.70;101521.13;10605675;27;20031;-67
2021/04/27 12:59:37;;;;;;;0.10;0.10;;;;;;;11.96;30.12;101520.28;10612902;28;20409;-67
2021/04/27 13:04:40;;;;;;;0.10;0.10;;;;;;;12.06;33.70;101520.19;10617512;27;20065;-67
2021/04/27 13:09:40;;;;;;;0.10;0.10;;;;;;;12.21;34.91;101512.50;10616806;27;20034;-67
2021/04/27 13:14:42;;;;;;;0.10;0.10;;;;;;;11.95;34.60;101507.91;10580147;28;20026;-68
2021/04/27 13:19:46;;;;;;;0.10;0.10;;;;;;;12.08;30.84;101496.88;10573903;28;20028;-68
2021/04/27 13:24:51;;;;;;;0.10;0.10;;;;;;;12.13;27.89;101493.72;10574651;28;20524;-68
2021/04/27 13:30:04;;;;;;;0.10;0.10;;;;;;;12.11;29.23;101496.56;10574510;28;20030;-67
2021/04/27 13:35:23;;;;;;;0.10;0.10;;;;;;;12.11;28.66;101477.88;10578060;28;20032;-67
2021/04/27 13:40:25;;;;;;;0.10;0.10;;;;;;;12.24;27.43;101464.94;10581645;27;20527;-67
2021/04/27 13:45:29;;;;;;;0.10;0.10;;;;;;;12.15;29.44;101454.34;10583090;28;20098;-67
2021/04/27 13:50:31;;;;;;;0.10;0.10;;;;;;;12.30;29.78;101454.63;10581705;28;20072;-67
2021/04/27 13:55:33;;;;;;;0.10;0.10;;;;;;;12.27;31.07;101447.78;10582574;28;20518;-67
2021/04/27 14:00:34;;;;;;;0.10;0.10;;;;;;;12.27;31.03;101447.78;10570376;27;20038;-67
2021/04/27 14:05:35;;;;;;;0.10;0.10;;;;;;;12.25;28.68;101441.78;10577984;28;20023;-67
2021/04/27 14:10:37;;;;;;;0.10;0.10;;;;;;;12.21;30.24;101440.38;10593100;27;20015;-67
2021/04/27 14:15:42;;;;;;;0.10;0.10;;;;;;;12.29;26.61;101428.94;10612209;27;20423;-68
2021/04/27 14:20:43;;;;;;;0.10;0.10;;;;;;;12.41;29.50;101435.69;10612450;27;20051;-68
2021/04/27 14:25:44;;;;;;;0.00;0.00;;;;;;;12.14;33.53;101423.31;10587488;27;20538;-67
2021/04/27 14:30:45;;;;;;;0.10;0.10;;;;;;;12.23;29.42;101420.53;10582166;27;20026;-67
2021/04/27 14:35:46;;;;;;;0.10;0.10;;;;;;;12.21;30.33;101406.50;10598586;27;20023;-67
2021/04/27 14:40:46;;;;;;;0.10;0.10;;;;;;;12.22;28.46;101405.53;10622143;27;20034;-66
2021/04/27 14:45:46;;;;;;;0.00;0.00;;;;;;;12.19;26.57;101394.31;10622361;27;20015;-66
2021/04/27 14:50:47;;;;;;;0.00;0.00;;;;;;;12.13;29.32;101392.25;10608441;27;20134;-67
2021/04/27 14:55:47;;;;;;;0.10;0.10;;;;;;;12.18;28.95;101389.94;10558549;27;20617;-66
2021/04/27 15:00:48;;;;;;;0.10;0.10;;;;;;;12.20;31.21;101383.47;10557705;27;20031;-67
2021/04/27 15:05:48;;;;;;;0.10;0.10;;;;;;;11.95;26.60;101387.75;10556572;27;20019;-67
2021/04/27 15:10:49;;;;;;;0.10;0.10;;;;;;;11.93;27.18;101378.25;10562512;27;20577;-66
2021/04/27 15:15:49;;;;;;;0.10;0.10;;;;;;;11.92;30.52;101373.91;10561819;27;20620;-67
2021/04/27 15:20:50;;;;;;;0.10;0.10;;;;;;;11.87;27.78;101365.50;10558082;27;20019;-67
2021/04/27 15:25:50;;;;;;;0.10;0.10;;;;;;;11.87;29.67;101349.50;10558540;27;20019;-67
2021/04/27 15:30:52;;;;;;;0.10;0.10;;;;;;;11.92;31.11;101344.53;10560252;27;20023;-67
2021/04/27 15:35:52;;;;;;;0.10;0.10;;;;;;;11.89;27.16;101344.84;10563692;27;20023;-67
2021/04/27 15:40:53;;;;;;;0.10;0.10;;;;;;;11.80;28.72;101335.91;10567158;27;20028;-67
2021/04/27 15:45:55;;;;;;;0.10;0.10;;;;;;;11.76;26.05;101348.72;10562776;27;20481;-68
2021/04/27 15:50:55;;;;;;;0.10;0.10;;;;;;;11.70;29.68;101340.50;10549215;27;20270;-67
2021/04/27 15:55:55;;;;;;;0.10;0.10;;;;;;;11.75;27.25;101339.06;10551186;27;20416;-68
2021/04/27 16:00:56;;;;;;;0.00;0.00;;;;;;;11.79;26.63;101327.06;10545230;27;20020;-66
2021/04/27 16:05:56;;;;;;;0.10;0.10;;;;;;;11.74;25.86;101316.00;10554669;28;20035;-67
2021/04/27 16:10:56;;;;;;;0.10;0.10;;;;;;;11.70;28.32;101319.16;10553328;27;20035;-67
2021/04/27 16:15:57;;;;;;;0.10;0.10;;;;;;;11.67;28.26;101311.47;10549338;28;20470;-68
2021/04/27 16:20:57;;;;;;;0.10;0.10;;;;;;;11.56;28.41;101313.34;10551545;27;20096;-67
2021/04/27 16:25:58;;;;;;;0.10;0.10;;;;;;;11.50;27.51;101315.81;10551474;28;20105;-68
2021/04/27 16:30:58;;;;;;;0.10;0.10;;;;;;;11.47;28.36;101308.94;10551994;27;20012;-68
2021/04/27 16:35:59;;;;;;;0.10;0.10;;;;;;;11.40;26.01;101307.03;10549434;28;20061;-67
2021/04/27 16:41:00;;;;;;;0.00;0.00;;;;;;;11.30;25.76;101305.28;10551046;28;20036;-67
2021/04/27 16:46:02;;;;;;;0.10;0.10;;;;;;;11.22;28.08;101307.88;10552049;28;20027;-67
2021/04/27 16:51:04;;;;;;;0.00;0.00;;;;;;;11.13;26.44;101291.94;10549728;28;20015;-67
2021/04/27 16:56:05;;;;;;;0.10;0.10;;;;;;;11.03;29.04;101289.38;10550540;28;20974;-67
2021/04/27 17:01:05;;;;;;;0.10;0.10;;;;;;;10.95;28.02;101291.94;10549556;28;20100;-67
2021/04/27 17:06:06;;;;;;;0.10;0.10;;;;;;;10.86;27.86;101283.84;10551475;28;20035;-68
2021/04/27 17:11:06;;;;;;;0.10;0.10;;;;;;;10.77;28.00;101286.59;10549579;27;20019;-68
2021/04/27 17:16:07;;;;;;;0.10;0.10;;;;;;;10.61;27.84;101284.53;10558343;27;20039;-67
2021/04/27 17:21:07;;;;;;;0.10;0.10;;;;;;;10.51;29.60;101284.59;10559004;27;20475;-67
2021/04/27 17:26:08;;;;;;;0.10;0.10;;;;;;;10.39;28.94;101294.59;10556937;27;20031;-68
2021/04/27 17:31:08;;;;;;;0.00;0.00;;;;;;;10.29;28.44;101290.31;10563823;27;20485;-67
2021/04/27 17:36:09;;;;;;;0.10;0.10;;;;;;;10.11;29.05;101285.69;10580477;27;20717;-66
2021/04/27 17:41:10;;;;;;;0.10;0.10;;;;;;;9.70;37.42;101308.19;10559963;27;20293;-67
2021/04/27 17:46:10;;;;;;;0.08;0.08;;;;;;;8.81;47.44;101319.75;10563538;27;20486;-66
2021/04/27 17:51:11;;;;;;;0.10;0.10;;;;;;;8.53;48.51;101318.66;10557150;27;20035;-67
2021/04/27 17:56:11;;;;;;;0.10;0.10;;;;;;;8.23;50.55;101315.97;10558031;27;20027;-67
2021/04/27 18:01:11;;;;;;;0.00;0.00;;;;;;;8.23;49.90;101310.66;10558777;27;20027;-67
2021/04/27 18:06:12;;;;;;;0.00;0.00;;;;;;;8.17;49.92;101327.94;10558071;22;20305;-67
2021/04/27 18:11:12;;;;;;;0.10;0.10;;;;;;;8.08;49.80;101328.72;10514250;27;20016;-66
2021/04/27 18:16:13;;;;;;;0.00;0.00;;;;;;;7.98;49.56;101319.88;10513022;28;20975;-67
2021/04/27 18:21:13;;;;;;;0.00;0.00;;;;;;;7.69;52.40;101321.38;10514463;28;20031;-66
2021/04/27 18:26:13;;;;;;;0.00;0.00;;;;;;;7.48;53.05;101328.47;10515611;28;20028;-67
2021/04/27 18:31:14;;;;;;;0.00;0.00;;;;;;;7.35;53.45;101330.44;10515076;28;20049;-66
2021/04/27 18:36:14;;;;;;;0.00;0.00;;;;;;;7.02;55.93;101324.25;10513946;28;20406;-68
2021/04/27 18:41:15;;;;;;;0.00;0.00;;;;;;;6.75;56.38;101332.63;10512454;28;20020;-68
2021/04/27 18:46:16;;;;;;;0.00;0.00;;;;;;;6.35;58.50;101335.75;10511449;28;20012;-66
2021/04/27 18:51:17;;;;;;;0.00;0.00;;;;;;;5.99;59.72;101334.13;10512701;28;20811;-68
2021/04/27 18:56:17;;;;;;;0.00;0.00;;;;;;;5.76;60.33;101344.63;10513921;28;20506;-68
2021/04/27 19:01:17;;;;;;;0.00;0.00;;;;;;;5.82;59.90;101354.72;10511169;28;20032;-67
2021/04/27 19:06:18;;;;;;;0.10;0.10;;;;;;;5.63;61.56;101355.25;10510742;28;20670;-68
2021/04/27 19:11:23;;;;;;;0.00;0.00;;;;;;;5.34;62.32;101365.31;10511331;28;20798;-67
2021/04/27 19:16:24;;;;;;;0.00;0.00;;;;;;;5.36;62.56;101374.00;10510030;28;20034;-68
2021/04/27 19:21:24;;;;;;;0.00;0.00;;;;;;;5.40;62.26;101364.03;10509325;28;20024;-68
2021/04/27 19:26:25;;;;;;;0.00;0.00;;;;;;;5.49;61.38;101367.81;10510738;28;20020;-68
2021/04/27 19:31:25;;;;;;;0.00;0.00;;;;;;;5.34;62.72;101364.50;10511469;28;20270;-68
2021/04/27 19:36:25;;;;;;;0.00;0.00;;;;;;;5.11;63.79;101361.72;10510716;28;20286;-66
2021/04/27 19:41:26;;;;;;;0.10;0.10;;;;;;;4.90;64.12;101366.75;10509174;28;20394;-67
2021/04/27 19:46:27;;;;;;;0.00;0.00;;;;;;;4.83;64.44;101365.50;10511503;28;20108;-68
2021/04/27 19:51:27;;;;;;;0.00;0.00;;;;;;;4.69;65.54;101369.09;10510915;28;20016;-67
2021/04/27 19:56:28;;;;;;;0.00;0.00;;;;;;;4.59;65.86;101377.75;10509240;28;20020;-68
2021/04/27 20:01:28;;;;;;;0.10;0.10;;;;;;;4.54;66.19;101365.75;10509138;28;20517;-68
2021/04/27 20:06:29;;;;;;;0.10;0.10;;;;;;;4.46;66.71;101383.91;10512880;28;20038;-67
2021/04/27 20:11:29;;;;;;;0.10;0.10;;;;;;;4.31;67.71;101369.97;10514346;28;20024;-67
2021/04/27 20:16:32;;;;;;;0.00;0.00;;;;;;;4.16;68.64;101364.88;10511713;28;20024;-67
2021/04/27 20:21:33;;;;;;;0.10;0.10;;;;;;;4.02;69.79;101364.06;10506364;28;20062;-68
2021/04/27 20:26:33;;;;;;;0.00;0.00;;;;;;;3.87;70.81;101362.47;10515328;28;20024;-67
2021/04/27 20:31:34;;;;;;;0.00;0.00;;;;;;;3.63;71.68;101357.00;10510154;28;20024;-67
2021/04/27 20:36:35;;;;;;;0.10;0.10;;;;;;;3.54;72.62;101362.88;10514661;28;20044;-68
2021/04/27 20:41:35;;;;;;;0.10;0.10;;;;;;;3.42;73.00;101367.16;10514340;28;20024;-68
2021/04/27 20:46:36;;;;;;;0.10;0.10;;;;;;;3.34;73.69;101364.19;10513256;28;20067;-68
2021/04/27 20:51:36;;;;;;;0.10;0.10;;;;;;;3.16;74.57;101358.31;10508818;28;20616;-68
2021/04/27 20:56:36;;;;;;;0.00;0.00;;;;;;;2.97;75.45;101350.75;10516584;28;20633;-68
2021/04/27 21:01:37;;;;;;;0.00;0.00;;;;;;;2.81;76.67;101361.38;10519775;28;20111;-67
2021/04/27 21:06:37;;;;;;;0.00;0.00;;;;;;;2.67;77.22;101346.47;10517199;28;20043;-67
2021/04/27 21:11:38;;;;;;;0.10;0.10;;;;;;;2.60;78.28;101344.31;10511794;28;20020;-66
2021/04/27 21:16:38;;;;;;;0.00;0.00;;;;;;;2.42;78.69;101336.63;10513842;28;20077;-68
2021/04/27 21:21:38;;;;;;;0.10;0.10;;;;;;;2.30;78.91;101344.41;10511796;28;20290;-67
2021/04/27 21:26:39;;;;;;;0.10;0.10;;;;;;;2.19;79.68;101337.19;10512674;28;20101;-67
2021/04/27 21:31:39;;;;;;;0.10;0.10;;;;;;;2.04;79.32;101342.41;10514302;28;20056;-68
2021/04/27 21:36:39;;;;;;;0.10;0.10;;;;;;;1.87;79.76;101329.44;10518747;28;20273;-68
2021/04/27 21:41:40;;;;;;;0.10;0.10;;;;;;;1.76;80.19;101332.69;10530741;28;20360;-67
2021/04/27 21:46:42;;;;;;;0.10;0.10;;;;;;;1.67;80.36;101333.22;10533733;28;20050;-67
2021/04/27 21:51:42;;;;;;;0.15;0.15;;;;;;;1.61;80.73;101335.38;10525417;28;20020;-67
2021/04/27 21:56:43;;;;;;;0.00;0.00;;;;;;;1.55;80.36;101334.78;10536401;28;20545;-67
2021/04/27 22:01:43;;;;;;;0.10;0.10;;;;;;;1.46;80.92;101323.97;10538974;28;20434;-67
2021/04/27 22:06:44;;;;;;;0.10;0.10;;;;;;;1.44;81.31;101337.19;10538537;28;20024;-67
2021/04/27 22:11:44;;;;;;;0.10;0.10;;;;;;;1.36;81.54;101334.97;10538904;28;20341;-66
2021/04/27 22:16:44;;;;;;;0.08;0.08;;;;;;;1.36;82.69;101329.72;10539247;28;20469;-66
2021/04/27 22:21:45;;;;;;;0.10;0.10;;;;;;;1.34;82.07;101328.16;10538542;28;20059;-66
2021/04/27 22:26:45;;;;;;;0.00;0.00;;;;;;;1.26;82.91;101330.38;10537653;28;20460;-66
2021/04/27 22:31:45;;;;;;;0.20;0.20;;;;;;;1.19;83.77;101327.22;10538279;28;20150;-67
2021/04/27 22:36:46;;;;;;;0.10;0.10;;;;;;;1.21;83.30;101328.00;10538457;28;20798;-67
2021/04/27 22:41:46;;;;;;;0.17;0.17;;;;;;;1.19;83.81;101319.34;10537948;28;20387;-66
2021/04/27 22:46:47;;;;;;;0.17;0.17;;;;;;;1.12;83.83;101329.34;10537224;28;20274;-67
2021/04/27 22:51:48;;;;;;;0.20;0.20;;;;;;;1.11;84.50;101322.44;10537442;28;20290;-66
2021/04/27 22:56:48;;;;;;;0.10;0.10;;;;;;;1.14;83.87;101331.91;10537858;28;20062;-66
2021/04/27 23:01:49;;;;;;;0.10;0.10;;;;;;;1.15;84.69;101327.50;10536794;28;20098;-66
2021/04/27 23:06:49;;;;;;;0.20;0.20;;;;;;;1.11;84.66;101318.97;10536775;28;20617;-67
2021/04/27 23:11:50;;;;;;;0.10;0.10;;;;;;;1.15;84.66;101319.63;10535434;28;20012;-67